Wetterdaten: Montag, 02.03.2015
Datum Zeit Temp. A. Feuchte A. Luftdruck Regen Wind Richtung Richtung Sonnenschein ET UV Solar Taupunkt Windchill Windben Empfang
02.03.2015 00:00 5,0 C 91 % 1006,7 hPa 0,0 l/m 0,0 km/h (0 Bft) S-SW 197 0 min 0,000 mm 0,0 UV-I 0 W/m 3,7 C 5,0 C 0,0 km/h (0 Bft) 0,00 %
02.03.2015 00:15 5,2 C 91 % 1006,4 hPa 0,0 l/m 0,0 km/h (0 Bft) S-SW 194 0 min 0,000 mm 0,0 UV-I 0 W/m 3,9 C 5,2 C 0,0 km/h (0 Bft) 0,00 %
02.03.2015 00:30 3,8 C 92 % 1006,7 hPa 0,0 l/m 0,0 km/h (0 Bft) NO 56 0 min 0,000 mm 0,0 UV-I 0 W/m 2,6 C 3,8 C 0,0 km/h (0 Bft) 0,00 %
02.03.2015 00:45 3,0 C 92 % 1006,9 hPa 0,0 l/m 0,0 km/h (0 Bft) NW 304 0 min 0,000 mm 0,0 UV-I 0 W/m 1,8 C 3,0 C 0,0 km/h (0 Bft) 0,00 %
02.03.2015 01:00 2,9 C 92 % 1006,9 hPa 0,0 l/m 0,0 km/h (0 Bft) W-SW 253 0 min 0,000 mm 0,0 UV-I 0 W/m 1,7 C 2,9 C 0,0 km/h (0 Bft) 0,00 %
02.03.2015 01:15 2,9 C 92 % 1007,1 hPa 0,6 l/m 0,0 km/h (0 Bft) W-SW 254 0 min 0,000 mm 0,0 UV-I 0 W/m 1,7 C 2,9 C 0,0 km/h (0 Bft) 0,00 %
02.03.2015 01:30 3,9 C 91 % 1007,2 hPa 0,6 l/m 0,0 km/h (0 Bft) W-SW 251 0 min 0,000 mm 0,0 UV-I 0 W/m 2,6 C 3,9 C 0,0 km/h (0 Bft) 0,00 %
02.03.2015 01:45 4,5 C 91 % 1007,0 hPa 0,6 l/m 0,4 km/h (0 Bft) S-SW 207 0 min 0,000 mm 0,0 UV-I 0 W/m 3,2 C 4,5 C 4,0 km/h (1 Bft) 0,00 %
02.03.2015 02:00 5,5 C 90 % 1006,2 hPa 0,0 l/m 0,0 km/h (0 Bft) S 182 0 min 0,000 mm 0,0 UV-I 0 W/m 4,0 C 5,5 C 0,0 km/h (0 Bft) 0,00 %
02.03.2015 02:15 5,9 C 89 % 1006,3 hPa 0,3 l/m 1,4 km/h (1 Bft) O 91 0 min 0,000 mm 0,0 UV-I 0 W/m 4,2 C 5,9 C 4,0 km/h (1 Bft) 0,00 %
02.03.2015 02:30 6,1 C 86 % 1005,9 hPa 0,3 l/m 0,4 km/h (0 Bft) SW 219 0 min 0,000 mm 0,0 UV-I 0 W/m 3,9 C 6,1 C 4,0 km/h (1 Bft) 0,00 %
02.03.2015 02:45 6,2 C 85 % 1005,4 hPa 0,3 l/m 0,0 km/h (0 Bft) W-SW 252 0 min 0,000 mm 0,0 UV-I 0 W/m 3,9 C 6,2 C 0,0 km/h (0 Bft) 0,00 %
02.03.2015 03:00 6,1 C 85 % 1005,4 hPa 0,0 l/m 0,0 km/h (0 Bft) S-SW 195 0 min 0,000 mm 0,0 UV-I 0 W/m 3,8 C 6,1 C 0,0 km/h (0 Bft) 0,00 %
02.03.2015 03:15 5,9 C 86 % 1005,1 hPa 0,0 l/m 0,0 km/h (0 Bft) S-SW 197 0 min 0,000 mm 0,0 UV-I 0 W/m 3,7 C 5,9 C 0,0 km/h (0 Bft) 0,00 %
02.03.2015 03:30 6,0 C 86 % 1004,5 hPa 0,0 l/m 0,0 km/h (0 Bft) S-SW 196 0 min 0,000 mm 0,0 UV-I 0 W/m 3,8 C 6,0 C 0,0 km/h (0 Bft) 0,00 %
02.03.2015 03:45 6,0 C 86 % 1004,2 hPa 0,3 l/m 0,0 km/h (0 Bft) S-SW 208 0 min 0,000 mm 0,0 UV-I 0 W/m 3,8 C 6,0 C 0,0 km/h (0 Bft) 0,00 %
02.03.2015 04:00 6,0 C 86 % 1003,6 hPa 0,0 l/m 0,0 km/h (0 Bft) SW 234 0 min 0,000 mm 0,0 UV-I 0 W/m 3,8 C 6,0 C 0,0 km/h (0 Bft) 0,00 %
02.03.2015 04:15 5,9 C 86 % 1003,0 hPa 0,0 l/m 0,0 km/h (0 Bft) W-SW 251 0 min 0,000 mm 0,0 UV-I 0 W/m 3,7 C 5,9 C 0,0 km/h (0 Bft) 0,00 %
02.03.2015 04:30 5,8 C 86 % 1003,2 hPa 0,0 l/m 0,0 km/h (0 Bft) S-SW 212 0 min 0,000 mm 0,0 UV-I 0 W/m 3,6 C 5,8 C 0,0 km/h (0 Bft) 0,00 %
02.03.2015 04:45 5,7 C 87 % 1003,1 hPa 0,0 l/m 0,0 km/h (0 Bft) S-SW 197 0 min 0,000 mm 0,0 UV-I 0 W/m 3,7 C 5,7 C 0,0 km/h (0 Bft) 0,00 %
02.03.2015 05:00 5,6 C 88 % 1003,3 hPa 0,0 l/m 0,0 km/h (0 Bft) SW 224 0 min 0,000 mm 0,0 UV-I 0 W/m 3,8 C 5,6 C 0,0 km/h (0 Bft) 0,00 %
02.03.2015 05:15 5,4 C 89 % 1002,8 hPa 0,3 l/m 0,0 km/h (0 Bft) S 174 0 min 0,000 mm 0,0 UV-I 0 W/m 3,7 C 5,4 C 0,0 km/h (0 Bft) 0,00 %
02.03.2015 05:30 5,4 C 89 % 1002,4 hPa 0,0 l/m 0,0 km/h (0 Bft) SW 216 0 min 0,000 mm 0,0 UV-I 0 W/m 3,7 C 5,4 C 0,0 km/h (0 Bft) 0,00 %
02.03.2015 05:45 5,3 C 90 % 1002,2 hPa 0,0 l/m 0,0 km/h (0 Bft) S 190 0 min 0,000 mm 0,0 UV-I 0 W/m 3,8 C 5,3 C 0,0 km/h (0 Bft) 0,00 %
02.03.2015 06:00 5,9 C 85 % 1002,5 hPa 0,0 l/m 0,0 km/h (0 Bft) NW 323 0 min 0,000 mm 0,0 UV-I 0 W/m 3,6 C 5,9 C 0,0 km/h (0 Bft) 0,00 %
02.03.2015 06:15 6,5 C 82 % 1002,2 hPa 0,0 l/m 0,0 km/h (0 Bft) SW 236 0 min 0,000 mm 0,0 UV-I 0 W/m 3,7 C 6,5 C 0,0 km/h (0 Bft) 0,00 %
02.03.2015 06:30 6,3 C 84 % 1001,9 hPa 0,0 l/m 0,0 km/h (0 Bft) SW 225 0 min 0,000 mm 0,0 UV-I 0 W/m 3,8 C 6,3 C 0,0 km/h (0 Bft) 0,00 %
02.03.2015 06:45 6,2 C 85 % 1002,0 hPa 0,3 l/m 0,0 km/h (0 Bft) SW 215 0 min 0,000 mm 0,0 UV-I 0 W/m 3,9 C 6,2 C 0,0 km/h (0 Bft) 0,00 %
02.03.2015 07:00 7,5 C 79 % 1001,7 hPa 0,3 l/m 4,3 km/h (1 Bft) NO 50 0 min 0,000 mm 0,0 UV-I 0 W/m 4,1 C 7,5 C 7,9 km/h (2 Bft) 0,00 %
02.03.2015 07:15 7,8 C 79 % 1002,1 hPa 0,6 l/m 0,7 km/h (0 Bft) O-NO 66 0 min 0,000 mm 0,0 UV-I 0 W/m 4,4 C 7,8 C 4,0 km/h (1 Bft) 0,00 %
02.03.2015 07:30 7,1 C 82 % 1002,3 hPa 0,0 l/m 1,4 km/h (1 Bft) SW 226 0 min 0,000 mm 0,0 UV-I 0 W/m 4,2 C 7,1 C 4,0 km/h (1 Bft) 0,00 %
02.03.2015 07:45 6,9 C 83 % 1002,3 hPa 0,0 l/m 0,0 km/h (0 Bft) W-SW 237 0 min 0,000 mm 0,0 UV-I 7 W/m 4,2 C 6,9 C 0,0 km/h (0 Bft) 0,00 %
02.03.2015 08:00 6,9 C 83 % 1002,4 hPa 0,3 l/m 3,2 km/h (1 Bft) W-SW 256 0 min 0,000 mm 1,0 UV-I 21 W/m 4,2 C 6,9 C 7,9 km/h (2 Bft) 0,00 %
02.03.2015 08:15 7,2 C 83 % 1001,2 hPa 0,0 l/m 0,0 km/h (0 Bft) S-SW 196 0 min 0,000 mm 1,0 UV-I 67 W/m 4,5 C 7,2 C 0,0 km/h (0 Bft) 0,00 %
02.03.2015 08:30 7,4 C 83 % 1001,5 hPa 0,0 l/m 0,0 km/h (0 Bft) S-SW 201 0 min 0,000 mm 1,0 UV-I 85 W/m 4,7 C 7,4 C 0,0 km/h (0 Bft) 0,00 %
02.03.2015 08:45 7,4 C 81 % 1001,8 hPa 0,0 l/m 0,0 km/h (0 Bft) W-SW 251 0 min 0,000 mm 0,0 UV-I 55 W/m 4,4 C 7,4 C 0,0 km/h (0 Bft) 0,00 %
02.03.2015 09:00 7,4 C 81 % 1003,1 hPa 0,3 l/m 0,0 km/h (0 Bft) S-SW 198 0 min 0,000 mm 0,0 UV-I 25 W/m 4,4 C 7,4 C 0,0 km/h (0 Bft) 0,00 %
02.03.2015 09:15 7,0 C 85 % 1003,0 hPa 1,2 l/m 5,4 km/h (1 Bft) W-SW 252 0 min 0,000 mm 1,0 UV-I 39 W/m 4,7 C 7,0 C 7,9 km/h (2 Bft) 0,00 %
02.03.2015 09:30 6,9 C 84 % 1002,9 hPa 0,6 l/m 7,9 km/h (2 Bft) SW 233 0 min 0,000 mm 1,0 UV-I 61 W/m 4,4 C 5,7 C 11,9 km/h (2 Bft) 0,00 %
02.03.2015 09:45 6,8 C 84 % 1002,8 hPa 0,3 l/m 4,3 km/h (1 Bft) S-SW 208 0 min 0,000 mm 1,0 UV-I 53 W/m 4,3 C 6,8 C 7,9 km/h (2 Bft) 0,00 %
02.03.2015 10:00 6,8 C 83 % 1002,5 hPa 0,3 l/m 1,8 km/h (1 Bft) S-SO 154 0 min 0,000 mm 1,0 UV-I 79 W/m 4,1 C 6,8 C 4,0 km/h (1 Bft) 0,00 %
02.03.2015 10:15 6,9 C 83 % 1002,6 hPa 0,0 l/m 1,8 km/h (1 Bft) W-NW 282 0 min 0,000 mm 1,0 UV-I 76 W/m 4,2 C 6,9 C 4,0 km/h (1 Bft) 0,00 %
02.03.2015 10:30 6,9 C 84 % 1002,8 hPa 0,3 l/m 6,5 km/h (2 Bft) W-SW 256 0 min 0,000 mm 1,0 UV-I 35 W/m 4,4 C 6,8 C 7,9 km/h (2 Bft) 0,00 %
02.03.2015 10:45 6,8 C 84 % 1002,5 hPa 0,3 l/m 0,0 km/h (0 Bft) W-SW 251 0 min 0,000 mm 1,0 UV-I 52 W/m 4,3 C 6,8 C 0,0 km/h (0 Bft) 0,00 %
02.03.2015 11:00 6,5 C 85 % 1003,5 hPa 0,9 l/m 0,4 km/h (0 Bft) S-SW 195 0 min 0,000 mm 0,0 UV-I 62 W/m 4,2 C 6,5 C 4,0 km/h (1 Bft) 0,00 %
02.03.2015 11:15 5,9 C 84 % 1004,0 hPa 0,6 l/m 17,3 km/h (3 Bft) W 271 0 min 0,000 mm 1,0 UV-I 41 W/m 3,4 C -0,9 C 28,1 km/h (4 Bft) 0,00 %
02.03.2015 11:30 5,6 C 83 % 1003,9 hPa 1,5 l/m 5,4 km/h (1 Bft) N-NW 332 0 min 0,000 mm 1,0 UV-I 114 W/m 2,9 C 5,6 C 7,9 km/h (2 Bft) 0,00 %
02.03.2015 11:45 5,0 C 84 % 1005,0 hPa 0,0 l/m 18,4 km/h (3 Bft) W-SW 255 0 min 0,000 mm 1,0 UV-I 106 W/m 2,5 C -2,5 C 24,1 km/h (4 Bft) 0,00 %
02.03.2015 12:00 4,8 C 83 % 1005,3 hPa 0,3 l/m 14,0 km/h (3 Bft) W-SW 254 0 min 0,000 mm 1,0 UV-I 51 W/m 2,2 C -0,6 C 19,8 km/h (3 Bft) 0,00 %
02.03.2015 12:15 5,0 C 83 % 1005,7 hPa 0,0 l/m 5,4 km/h (1 Bft) W-SW 252 0 min 0,000 mm 1,0 UV-I 72 W/m 2,4 C 5,0 C 7,9 km/h (2 Bft) 0,00 %
02.03.2015 12:30 4,9 C 82 % 1006,0 hPa 0,0 l/m 5,4 km/h (1 Bft) O-SO 119 0 min 0,000 mm 1,0 UV-I 83 W/m 2,1 C 4,9 C 11,9 km/h (2 Bft) 0,00 %
02.03.2015 12:45 4,8 C 83 % 1006,2 hPa 0,3 l/m 2,9 km/h (1 Bft) NO 38 0 min 0,000 mm 1,0 UV-I 63 W/m 2,2 C 4,8 C 4,0 km/h (1 Bft) 0,00 %
02.03.2015 13:00 4,6 C 83 % 1006,3 hPa 0,3 l/m 5,8 km/h (2 Bft) W-NW 303 0 min 0,000 mm 1,0 UV-I 68 W/m 2,0 C 4,6 C 11,9 km/h (2 Bft) 0,00 %
02.03.2015 13:15 4,4 C 83 % 1005,0 hPa 0,3 l/m 2,9 km/h (1 Bft) SW 218 0 min 0,000 mm 2,0 UV-I 82 W/m 1,8 C 4,4 C 7,9 km/h (2 Bft) 0,00 %
02.03.2015 13:30 4,3 C 83 % 1006,1 hPa 0,0 l/m 6,5 km/h (2 Bft) S-SW 196 0 min 0,000 mm 1,0 UV-I 99 W/m 1,7 C 4,2 C 7,9 km/h (2 Bft) 0,00 %
02.03.2015 13:45 4,2 C 83 % 1006,3 hPa 0,0 l/m 4,3 km/h (1 Bft) SW 217 0 min 0,000 mm 1,0 UV-I 63 W/m 1,6 C 4,2 C 7,9 km/h (2 Bft) 0,00 %
02.03.2015 14:00 4,3 C 82 % 1006,5 hPa 0,3 l/m 7,2 km/h (2 Bft) S 182 0 min 0,000 mm 1,0 UV-I 69 W/m 1,5 C 3,6 C 11,9 km/h (2 Bft) 0,00 %
02.03.2015 14:15 4,2 C 82 % 1006,6 hPa 0,0 l/m 10,4 km/h (2 Bft) O 88 0 min 0,000 mm 1,0 UV-I 59 W/m 1,4 C 0,9 C 19,8 km/h (3 Bft) 0,00 %
02.03.2015 14:30 4,2 C 81 % 1007,1 hPa 0,0 l/m 9,0 km/h (2 Bft) W-SW 256 0 min 0,000 mm 1,0 UV-I 79 W/m 1,2 C 1,9 C 11,9 km/h (2 Bft) 0,00 %
02.03.2015 14:45 4,3 C 80 % 1007,5 hPa 0,0 l/m 4,0 km/h (1 Bft) NO 52 0 min 0,000 mm 1,0 UV-I 80 W/m 1,2 C 4,3 C 7,9 km/h (2 Bft) 0,00 %
02.03.2015 15:00 4,3 C 78 % 1007,7 hPa 0,0 l/m 3,2 km/h (1 Bft) S 173 0 min 0,000 mm 1,0 UV-I 66 W/m 0,8 C 4,3 C 7,9 km/h (2 Bft) 0,00 %
02.03.2015 15:15 4,2 C 76 % 1007,6 hPa 0,0 l/m 2,2 km/h (1 Bft) SW 233 0 min 0,000 mm 1,0 UV-I 78 W/m 0,4 C 4,2 C 4,0 km/h (1 Bft) 0,00 %
02.03.2015 15:30 4,3 C 76 % 1007,6 hPa 0,0 l/m 0,4 km/h (0 Bft) W-SW 256 0 min 0,000 mm 1,0 UV-I 59 W/m 0,5 C 4,3 C 4,0 km/h (1 Bft) 0,00 %
02.03.2015 15:45 4,4 C 73 % 1007,6 hPa 0,0 l/m 8,3 km/h (2 Bft) O 89 0 min 0,000 mm 1,0 UV-I 122 W/m -0,0 C 2,7 C 15,8 km/h (3 Bft) 0,00 %
02.03.2015 16:00 4,4 C 71 % 1007,9 hPa 0,0 l/m 1,8 km/h (1 Bft) S-SO 158 0 min 0,000 mm 1,0 UV-I 75 W/m -0,4 C 4,4 C 4,0 km/h (1 Bft) 0,00 %
02.03.2015 16:15 4,4 C 73 % 1008,4 hPa 0,0 l/m 3,2 km/h (1 Bft) S-SO 158 0 min 0,000 mm 1,0 UV-I 73 W/m -0,0 C 4,4 C 4,0 km/h (1 Bft) 0,00 %
02.03.2015 16:30 4,3 C 73 % 1009,1 hPa 0,0 l/m 7,9 km/h (2 Bft) W-NW 296 0 min 0,000 mm 0,0 UV-I 26 W/m -0,1 C 3,0 C 11,9 km/h (2 Bft) 0,00 %
02.03.2015 16:45 4,3 C 72 % 1009,1 hPa 0,0 l/m 6,8 km/h (2 Bft) W-SW 256 0 min 0,000 mm 0,0 UV-I 21 W/m -0,3 C 3,9 C 11,9 km/h (2 Bft) 0,00 %
02.03.2015 17:00 4,3 C 75 % 1009,9 hPa 0,0 l/m 7,9 km/h (2 Bft) W-SW 252 0 min 0,000 mm 0,0 UV-I 0 W/m 0,3 C 3,0 C 11,9 km/h (2 Bft) 0,00 %
02.03.2015 17:15 3,1 C 78 % 1010,5 hPa 1,5 l/m 9,4 km/h (2 Bft) W-SW 250 0 min 0,000 mm 0,0 UV-I 0 W/m -0,4 C 0,4 C 15,8 km/h (3 Bft) 0,00 %
02.03.2015 17:30 2,3 C 79 % 1011,0 hPa 0,9 l/m 4,7 km/h (1 Bft) W-SW 256 0 min 0,000 mm 0,0 UV-I 0 W/m -1,0 C 2,3 C 7,9 km/h (2 Bft) 0,00 %
02.03.2015 17:45 2,0 C 81 % 1011,0 hPa 0,0 l/m 0,0 km/h (0 Bft) S-SW 198 0 min 0,000 mm 0,0 UV-I 0 W/m -0,9 C 2,0 C 0,0 km/h (0 Bft) 0,00 %
02.03.2015 18:00 1,7 C 82 % 1010,9 hPa 0,0 l/m 0,0 km/h (0 Bft) S-SW 208 0 min 0,000 mm 0,0 UV-I 0 W/m -1,0 C 1,7 C 0,0 km/h (0 Bft) 0,00 %
02.03.2015 18:15 1,7 C 83 % 1011,3 hPa 0,0 l/m 0,0 km/h (0 Bft) S-SW 196 0 min 0,000 mm 0,0 UV-I 0 W/m -0,9 C 1,7 C 0,0 km/h (0 Bft) 0,00 %
02.03.2015 18:30 1,9 C 84 % 1011,6 hPa 0,0 l/m 0,0 km/h (0 Bft) SW 221 0 min 0,000 mm 0,0 UV-I 0 W/m -0,5 C 1,9 C 0,0 km/h (0 Bft) 0,00 %
02.03.2015 18:45 2,3 C 86 % 1012,1 hPa 0,0 l/m 0,0 km/h (0 Bft) S-SW 213 0 min 0,000 mm 0,0 UV-I 0 W/m 0,2 C 2,3 C 0,0 km/h (0 Bft) 0,00 %
02.03.2015 19:00 3,1 C 82 % 1011,8 hPa 0,0 l/m 1,4 km/h (1 Bft) W-SW 254 0 min 0,000 mm 0,0 UV-I 0 W/m 0,3 C 3,1 C 4,0 km/h (1 Bft) 0,00 %
02.03.2015 19:15 3,2 C 80 % 1012,1 hPa 0,0 l/m 0,0 km/h (0 Bft) S-SW 193 0 min 0,000 mm 0,0 UV-I 0 W/m 0,1 C 3,2 C 0,0 km/h (0 Bft) 0,00 %
02.03.2015 19:30 3,0 C 81 % 1012,4 hPa 0,0 l/m 0,7 km/h (0 Bft) O 85 0 min 0,000 mm 0,0 UV-I 0 W/m 0,1 C 3,0 C 4,0 km/h (1 Bft) 0,00 %
02.03.2015 19:45 3,1 C 78 % 1012,4 hPa 0,0 l/m 7,9 km/h (2 Bft) N-NW 335 0 min 0,000 mm 0,0 UV-I 0 W/m -0,4 C 1,7 C 15,8 km/h (3 Bft) 0,00 %
02.03.2015 20:00 3,2 C 78 % 1012,4 hPa 0,0 l/m 0,4 km/h (0 Bft) S-SW 195 0 min 0,000 mm 0,0 UV-I 0 W/m -0,3 C 3,2 C 4,0 km/h (1 Bft) 0,00 %
02.03.2015 20:15 3,3 C 77 % 1012,3 hPa 0,0 l/m 1,4 km/h (1 Bft) W-SW 253 0 min 0,000 mm 0,0 UV-I 0 W/m -0,3 C 3,3 C 7,9 km/h (2 Bft) 0,00 %
02.03.2015 20:30 3,3 C 78 % 1012,8 hPa 0,0 l/m 2,9 km/h (1 Bft) W-SW 255 0 min 0,000 mm 0,0 UV-I 0 W/m -0,2 C 3,3 C 7,9 km/h (2 Bft) 0,00 %
02.03.2015 20:45 3,1 C 79 % 1012,6 hPa 0,0 l/m 0,0 km/h (0 Bft) SO 134 0 min 0,000 mm 0,0 UV-I 0 W/m -0,2 C 3,1 C 0,0 km/h (0 Bft) 0,00 %
02.03.2015 21:00 2,9 C 79 % 1012,7 hPa 0,0 l/m 0,0 km/h (0 Bft) W-SW 251 0 min 0,000 mm 0,0 UV-I 0 W/m -0,4 C 2,9 C 0,0 km/h (0 Bft) 0,00 %
02.03.2015 21:15 2,8 C 78 % 1012,7 hPa 0,0 l/m 0,0 km/h (0 Bft) N 354 0 min 0,000 mm 0,0 UV-I 0 W/m -0,6 C 2,8 C 0,0 km/h (0 Bft) 0,00 %
02.03.2015 21:30 3,1 C 78 % 1012,7 hPa 0,0 l/m 0,4 km/h (0 Bft) W-SW 252 0 min 0,000 mm 0,0 UV-I 0 W/m -0,4 C 3,1 C 4,0 km/h (1 Bft) 0,00 %
02.03.2015 21:45 3,3 C 78 % 1012,4 hPa 0,0 l/m 0,0 km/h (0 Bft) S 172 0 min 0,000 mm 0,0 UV-I 0 W/m -0,2 C 3,3 C 0,0 km/h (0 Bft) 0,00 %
02.03.2015 22:00 3,5 C 75 % 1012,9 hPa 0,0 l/m 5,4 km/h (1 Bft) W-SW 251 0 min 0,000 mm 0,0 UV-I 0 W/m -0,5 C 3,5 C 15,8 km/h (3 Bft) 0,00 %
02.03.2015 22:15 2,9 C 78 % 1014,7 hPa 1,5 l/m 9,4 km/h (2 Bft) W-SW 251 0 min 0,000 mm 0,0 UV-I 0 W/m -0,5 C 0,2 C 11,9 km/h (2 Bft) 0,00 %
02.03.2015 22:30 1,1 C 82 % 1014,3 hPa 0,3 l/m 1,8 km/h (1 Bft) W-SW 252 0 min 0,000 mm 0,0 UV-I 0 W/m -1,6 C 1,1 C 4,0 km/h (1 Bft) 0,00 %
02.03.2015 22:45 1,0 C 83 % 1014,8 hPa 0,0 l/m 4,0 km/h (1 Bft) W-SW 246 0 min 0,000 mm 0,0 UV-I 0 W/m -1,6 C 1,0 C 7,9 km/h (2 Bft) 0,00 %
02.03.2015 23:00 1,4 C 83 % 1015,4 hPa 0,0 l/m 2,2 km/h (1 Bft) S 173 0 min 0,000 mm 0,0 UV-I 0 W/m -1,2 C 1,4 C 4,0 km/h (1 Bft) 0,00 %
02.03.2015 23:15 1,8 C 80 % 1015,8 hPa 0,0 l/m 4,0 km/h (1 Bft) W-SW 251 0 min 0,000 mm 0,0 UV-I 0 W/m -1,3 C 1,8 C 4,0 km/h (1 Bft) 0,00 %
02.03.2015 23:30 2,1 C 79 % 1016,1 hPa 0,0 l/m 1,8 km/h (1 Bft) S 184 0 min 0,000 mm 0,0 UV-I 0 W/m -1,2 C 2,1 C 7,9 km/h (2 Bft) 0,00 %
02.03.2015 23:45 2,4 C 80 % 1015,9 hPa 0,0 l/m 4,7 km/h (1 Bft) S 175 0 min 0,000 mm 0,0 UV-I 0 W/m -0,7 C 2,4 C 7,9 km/h (2 Bft) 0,00 %
_ Min-Zeit 22:45 16:00 08:15 - 00:00 - - - - - - 22:30 11:45 00:00 00:00
Minimum _ 1,0 C 71 % 1001,2 hPa - 0,0 km/h (0 Bft) - - - - - - -1,6 C -2,5 C 0,0 km/h (0 Bft) 0,00 %
_ Max-Zeit 07:15 00:30 23:30 11:30 11:45 - - 00:00 00:00 13:15 15:45 08:30 07:15 11:15 00:00
Maximum _ 7,8 C 92 % 1016,1 hPa 1,5 l/m 18,4 km/h
W-SW (3 Bft)
- - 0 min 0,000 mm 2,0 UV-I 122 W/m 4,7 C 7,8 C 28,1 km/h
W (4 Bft)
0,00 %
Durchschnitt _ 4,7 C 83 % 1007,1 hPa #16,8 l/m 2,8 km/h (1 Bft) W-SW - #0 min. #0,000 mm 1,0 UV-I 64 W/m 1,9 C 4,2 C 5,1 km/h (1 Bft) 0,00 %